Time;durP1;ratioP1;P1;durP2;ratioP2;P2;SDS_P1;SDS_P2;PMS_P1;PMS_P2;Temp;Humidity;BMP_temperature;BMP_pressure;BME280_temperature;BME280_humidity;BME280_pressure;Samples;Min_cycle;Max_cycle;Signal;HPM_P1;HPM_P2
2023/10/05 00:02:13;;;;;;;9.07;4.22;;;;;;;11.04;82.83;101661.03;7399876;19;20025;-67
2023/10/05 00:04:44;;;;;;;8.45;4.93;;;;;;;11.02;82.96;101654.91;7396978;19;20014;-67
2023/10/05 00:07:19;;;;;;;8.85;4.18;;;;;;;11.00;83.25;101656.72;7396335;19;20385;-66
2023/10/05 00:09:56;;;;;;;9.98;4.53;;;;;;;10.97;83.08;101651.47;7399942;19;20019;-67
2023/10/05 00:12:25;;;;;;;10.07;4.35;;;;;;;10.94;83.42;101647.13;7397720;19;20022;-67
2023/10/05 00:15:11;;;;;;;7.47;4.18;;;;;;;10.92;83.44;101641.03;7399296;19;20011;-66
2023/10/05 00:17:43;;;;;;;7.70;4.22;;;;;;;10.90;83.60;101643.63;7398093;19;20018;-67
2023/10/05 00:20:15;;;;;;;12.55;5.28;;;;;;;10.89;83.41;101652.44;7397459;19;20014;-66
2023/10/05 00:22:43;;;;;;;7.90;4.43;;;;;;;10.89;83.85;101655.06;7398762;19;20376;-67
2023/10/05 00:25:14;;;;;;;9.65;4.63;;;;;;;10.87;83.69;101659.44;7398899;19;20018;-67
2023/10/05 00:27:44;;;;;;;10.65;4.70;;;;;;;10.86;83.84;101647.19;7395365;19;20018;-66
2023/10/05 00:30:17;;;;;;;9.75;4.82;;;;;;;10.85;83.97;101648.06;7396608;19;20036;-66
2023/10/05 00:32:52;;;;;;;12.10;4.80;;;;;;;10.83;84.06;101652.47;7396871;19;20010;-66
2023/10/05 00:35:29;;;;;;;9.27;3.92;;;;;;;10.83;84.08;101654.22;7397141;19;20011;-66
2023/10/05 00:38:12;;;;;;;9.02;4.38;;;;;;;10.81;84.10;101654.22;7397231;19;20485;-66
2023/10/05 00:40:43;;;;;;;9.23;4.03;;;;;;;10.81;84.19;101653.38;7398912;19;20011;-66
2023/10/05 00:43:19;;;;;;;8.18;4.10;;;;;;;10.78;84.41;101648.13;7398464;19;20010;-66
2023/10/05 00:45:48;;;;;;;11.75;5.05;;;;;;;10.80;84.37;101649.00;7398366;19;20335;-66
2023/10/05 00:48:34;;;;;;;7.32;4.35;;;;;;;10.78;84.52;101646.41;7396823;19;20010;-67
2023/10/05 00:51:06;;;;;;;11.05;4.90;;;;;;;10.78;84.33;101648.13;7397401;19;20035;-66
2023/10/05 00:53:35;;;;;;;6.97;4.28;;;;;;;10.77;84.33;101644.66;7397920;19;20017;-66
2023/10/05 00:56:12;;;;;;;11.18;4.25;;;;;;;10.76;84.35;101645.53;7396272;19;20019;-67
2023/10/05 00:58:43;;;;;;;11.02;4.90;;;;;;;10.75;84.28;101647.28;7396809;19;20013;-67
2023/10/05 01:01:21;;;;;;;9.57;4.47;;;;;;;10.75;84.50;101641.16;7398478;19;20037;-66
2023/10/05 01:04:18;;;;;;;10.20;4.50;;;;;;;10.75;84.68;101633.28;7398335;19;20027;-67
2023/10/05 01:06:54;;;;;;;6.72;4.05;;;;;;;10.72;84.73;101628.06;7399367;19;20072;-66
2023/10/05 01:09:39;;;;;;;8.90;4.30;;;;;;;10.73;84.74;101630.66;7399805;19;20006;-67
2023/10/05 01:12:20;;;;;;;9.60;4.45;;;;;;;10.72;84.58;101626.31;7397709;19;20014;-67
2023/10/05 01:14:51;;;;;;;12.25;4.68;;;;;;;10.72;84.72;101613.19;7397940;19;20371;-67
2023/10/05 01:17:25;;;;;;;11.70;4.72;;;;;;;10.71;84.57;101613.19;7397207;19;20019;-67
2023/10/05 01:19:58;;;;;;;;;;;;;;;10.71;85.26;101618.44;7398834;19;20031;-67
2023/10/05 01:22:32;;;;;;;8.82;4.10;;;;;;;10.70;84.68;101617.59;7395248;19;19932;-66
2023/10/05 01:25:04;;;;;;;8.43;4.53;;;;;;;10.69;84.55;101618.47;7397292;19;20353;-67
2023/10/05 01:27:33;;;;;;;9.50;4.32;;;;;;;10.70;84.67;101608.81;7396624;19;20021;-66
2023/10/05 01:30:03;;;;;;;7.45;4.22;;;;;;;10.70;84.64;101609.72;7395283;19;20085;-67
2023/10/05 01:32:32;;;;;;;10.63;4.18;;;;;;;10.71;84.79;101600.06;7395136;19;20007;-65
2023/10/05 01:35:06;;;;;;;7.93;3.85;;;;;;;10.71;84.86;101597.44;7396156;19;20015;-67
2023/10/05 01:37:36;;;;;;;11.57;4.63;;;;;;;10.71;84.73;101590.44;7394033;19;20102;-67
2023/10/05 01:40:13;;;;;;;10.27;4.00;;;;;;;10.71;84.58;101585.19;7397252;19;20070;-66
2023/10/05 01:42:45;;;;;;;8.60;4.03;;;;;;;10.74;84.74;101589.53;7396942;19;20062;-66
2023/10/05 01:45:19;;;;;;;7.43;4.10;;;;;;;10.73;84.50;101580.81;7396850;19;20043;-66
2023/10/05 01:47:48;;;;;;;;;;;;;;;10.73;85.26;101578.19;7395918;19;20022;-66
2023/10/05 01:50:19;;;;;;;10.32;4.25;;;;;;;10.73;84.39;101577.31;7396196;19;19921;-66
2023/10/05 01:52:55;;;;;;;7.25;3.78;;;;;;;10.74;84.46;101584.28;7395199;19;20090;-66
2023/10/05 01:55:27;;;;;;;10.15;4.18;;;;;;;10.73;84.62;101579.94;7395010;19;20014;-66
2023/10/05 01:57:58;;;;;;;10.35;5.43;;;;;;;10.72;84.32;101568.56;7394703;19;20010;-67
2023/10/05 02:00:26;;;;;;;8.63;4.32;;;;;;;10.74;84.53;101573.78;7394429;19;20018;-66
2023/10/05 02:02:55;;;;;;;11.60;4.18;;;;;;;10.73;84.45;101572.06;7396053;19;20035;-67
2023/10/05 02:05:24;;;;;;;7.22;4.05;;;;;;;10.74;84.39;101571.16;7395866;19;20018;-66
2023/10/05 02:07:53;;;;;;;13.10;4.43;;;;;;;10.73;84.44;101572.94;7395094;19;20018;-66
2023/10/05 02:10:22;;;;;;;12.15;4.72;;;;;;;10.72;84.42;101571.19;7395858;19;20111;-66
2023/10/05 02:12:54;;;;;;;8.10;4.95;;;;;;;10.72;84.48;101559.81;7393857;19;20495;-66
2023/10/05 02:15:28;;;;;;;8.73;4.07;;;;;;;10.71;84.51;101563.31;7395668;19;20023;-66
2023/10/05 02:17:59;;;;;;;8.70;4.43;;;;;;;10.70;84.52;101566.84;7393213;19;20027;-66
2023/10/05 02:25:54;;;;;;;10.60;4.38;;;;;;;10.66;84.72;101552.00;7398667;19;20013;-66
2023/10/05 02:28:26;;;;;;;12.82;4.07;;;;;;;10.64;84.73;101553.75;7396817;19;20367;-67
2023/10/05 02:31:02;;;;;;;9.50;3.95;;;;;;;10.62;84.70;101551.16;7395538;19;20367;-65
2023/10/05 02:33:32;;;;;;;10.85;4.03;;;;;;;10.61;84.68;101552.03;7397775;19;20029;-66
2023/10/05 02:36:20;;;;;;;12.00;5.45;;;;;;;10.58;84.66;101542.44;7394783;19;20033;-67
2023/10/05 02:38:53;;;;;;;13.48;4.55;;;;;;;10.58;84.84;101545.06;7393246;19;20015;-67
2023/10/05 02:41:24;;;;;;;8.80;4.20;;;;;;;10.55;84.85;101550.34;7395071;19;20014;-66
2023/10/05 02:43:58;;;;;;;10.90;4.20;;;;;;;10.55;84.85;101538.97;7394198;19;20015;-66
2023/10/05 02:46:26;;;;;;;10.17;4.00;;;;;;;10.52;84.89;101539.88;7394888;19;20018;-65
2023/10/05 02:48:55;;;;;;;7.55;4.13;;;;;;;10.50;84.97;101544.28;7393232;19;20453;-65
2023/10/05 02:51:24;;;;;;;9.73;4.68;;;;;;;10.48;85.17;101543.41;7401469;19;20014;-67
2023/10/05 02:53:56;;;;;;;10.93;4.88;;;;;;;10.47;85.28;101540.81;7401980;19;20031;-67
2023/10/05 02:56:28;;;;;;;10.07;4.70;;;;;;;10.45;85.17;101539.94;7402258;19;20095;-66
2023/10/05 02:59:02;;;;;;;10.38;5.50;;;;;;;10.42;85.37;101540.84;7398683;19;20492;-66
2023/10/05 03:01:37;;;;;;;11.45;5.22;;;;;;;10.40;85.48;101537.34;7401797;19;20041;-66
2023/10/05 03:04:16;;;;;;;11.15;5.00;;;;;;;10.38;85.56;101526.00;7401767;19;20022;-66
2023/10/05 03:06:45;;;;;;;9.50;4.50;;;;;;;10.36;85.62;101531.28;7401637;19;20017;-67
2023/10/05 03:09:13;;;;;;;8.57;4.50;;;;;;;10.34;85.79;101522.50;7397932;19;20014;-67
2023/10/05 03:11:46;;;;;;;11.10;5.05;;;;;;;10.32;85.81;101529.50;7399496;19;20363;-66
2023/10/05 03:14:18;;;;;;;9.15;4.30;;;;;;;10.31;86.05;101524.28;7400014;19;20007;-66
2023/10/05 03:16:47;;;;;;;8.43;4.45;;;;;;;10.30;86.01;101526.03;7401355;19;20066;-67
2023/10/05 03:19:20;;;;;;;11.00;4.95;;;;;;;10.28;86.09;101522.56;7401402;19;20355;-66
2023/10/05 03:21:50;;;;;;;10.25;3.97;;;;;;;10.28;86.34;101528.66;7398386;19;20014;-66
2023/10/05 03:24:19;;;;;;;11.50;4.32;;;;;;;10.27;86.38;101526.94;7401434;19;20014;-67
2023/10/05 03:26:51;;;;;;;12.85;4.85;;;;;;;10.27;86.47;101533.91;7398042;19;20035;-67
2023/10/05 03:29:22;;;;;;;10.23;4.40;;;;;;;10.26;86.59;101525.19;7400660;19;20015;-66
2023/10/05 03:32:01;;;;;;;11.80;5.60;;;;;;;10.26;86.57;101529.56;7399928;19;20360;-66
2023/10/05 03:34:31;;;;;;;11.57;4.38;;;;;;;10.25;86.66;101533.94;7400929;19;20019;-66
2023/10/05 03:37:03;;;;;;;9.43;4.70;;;;;;;10.25;86.73;101533.09;7397878;19;20425;-66
2023/10/05 03:39:37;;;;;;;11.68;4.82;;;;;;;10.23;86.99;101530.44;7401105;19;20011;-67
2023/10/05 03:42:06;;;;;;;8.88;4.50;;;;;;;10.24;87.17;101528.72;7401210;19;20362;-66
2023/10/05 03:44:37;;;;;;;11.50;4.72;;;;;;;10.24;87.11;101524.31;7397638;19;20401;-66
2023/10/05 03:47:06;;;;;;;11.98;5.40;;;;;;;10.25;87.00;101523.44;7399984;19;20070;-66
2023/10/05 03:49:54;;;;;;;11.38;4.95;;;;;;;10.24;87.39;101526.94;7400682;19;20007;-66
2023/10/05 03:52:24;;;;;;;9.60;4.78;;;;;;;10.25;87.19;101523.44;7397891;19;20037;-66
2023/10/05 03:54:53;;;;;;;10.07;5.13;;;;;;;10.26;87.48;101511.19;7399601;19;20386;-67
2023/10/05 03:57:21;;;;;;;26.58;14.98;;;;;;;10.26;87.37;101519.06;7397085;19;20007;-66
2023/10/05 03:59:52;;;;;;;12.35;5.40;;;;;;;10.26;87.58;101505.94;7399445;19;20421;-66
2023/10/05 04:02:21;;;;;;;13.65;5.40;;;;;;;10.28;87.42;101507.69;7396260;19;20021;-66
2023/10/05 04:04:49;;;;;;;9.55;5.32;;;;;;;10.28;87.56;101510.31;7399095;19;20591;-67
2023/10/05 04:07:20;;;;;;;9.65;4.75;;;;;;;10.29;87.54;101513.81;7398831;19;20018;-66
2023/10/05 04:09:49;;;;;;;13.93;5.25;;;;;;;10.30;87.58;101509.41;7399141;19;20014;-66
2023/10/05 04:12:18;;;;;;;13.65;5.30;;;;;;;10.30;87.59;101510.31;7398376;19;20365;-66
2023/10/05 04:14:46;;;;;;;12.00;4.93;;;;;;;10.30;87.73;101510.31;7398204;19;20587;-66
2023/10/05 04:17:21;;;;;;;12.82;5.78;;;;;;;10.31;87.43;101505.91;7398354;19;20038;-67
2023/10/05 04:19:52;;;;;;;11.65;5.38;;;;;;;10.31;87.49;101495.44;7398981;19;20458;-66
2023/10/05 04:22:20;;;;;;;12.50;4.85;;;;;;;10.30;87.59;101498.94;7398246;19;20007;-67
2023/10/05 04:24:49;;;;;;;12.80;5.28;;;;;;;10.30;87.80;101493.69;7398385;19;20073;-66
2023/10/05 04:27:18;;;;;;;10.85;4.63;;;;;;;10.31;87.83;101490.19;7397959;19;20015;-66
2023/10/05 04:29:46;;;;;;;9.95;5.00;;;;;;;10.31;87.79;101485.78;7398594;19;20018;-67
2023/10/05 04:32:18;;;;;;;11.10;5.47;;;;;;;10.31;87.76;101491.03;7397846;19;20035;-66
2023/10/05 04:34:46;;;;;;;9.32;4.60;;;;;;;10.32;87.82;101489.31;7398646;19;20038;-66
2023/10/05 04:37:15;;;;;;;14.02;5.75;;;;;;;10.33;87.83;101493.69;7395921;19;20015;-64
2023/10/05 04:39:43;;;;;;;16.08;5.70;;;;;;;10.33;88.35;101493.69;7397423;19;20075;-66
2023/10/05 04:42:15;;;;;;;15.15;5.40;;;;;;;10.34;88.03;101483.16;7397500;19;20065;-67
2023/10/05 04:44:45;;;;;;;10.63;5.85;;;;;;;10.35;88.03;101473.53;7397832;19;20033;-66
2023/10/05 04:47:14;;;;;;;12.90;5.32;;;;;;;10.38;87.99;101477.03;7397218;19;20014;-66
2023/10/05 04:49:45;;;;;;;11.05;5.70;;;;;;;10.41;88.04;101476.13;7397667;19;20115;-65
2023/10/05 04:52:19;;;;;;;12.88;5.05;;;;;;;10.42;88.03;101470.00;7397214;19;20169;-66
2023/10/05 04:54:51;;;;;;;;;;;;;;;10.45;88.41;101467.38;7396428;19;20090;-67
2023/10/05 04:57:34;;;;;;;11.80;6.40;;;;;;;10.45;87.79;101472.63;7396995;19;19923;-67
2023/10/05 05:00:48;;;;;;;9.55;4.93;;;;;;;10.48;87.86;101471.72;7396491;19;20376;-66
2023/10/05 05:03:05;;;;;;;15.93;5.93;;;;;;;10.48;87.85;101464.69;7395312;19;20010;-66
2023/10/05 05:05:53;;;;;;;9.77;5.25;;;;;;;10.50;87.65;101460.31;7395107;19;20105;-66
2023/10/05 05:08:22;;;;;;;13.82;6.50;;;;;;;10.52;87.75;101463.78;7395806;19;20078;-67
2023/10/05 05:10:51;;;;;;;13.07;5.30;;;;;;;10.54;87.78;101455.88;7396560;19;20090;-66
2023/10/05 05:13:20;;;;;;;15.00;5.90;;;;;;;10.55;87.71;101453.28;7394561;19;20037;-67
2023/10/05 05:15:50;;;;;;;14.25;4.97;;;;;;;10.56;87.67;101455.00;7395858;19;20014;-66
2023/10/05 05:18:19;;;;;;;12.18;6.05;;;;;;;10.57;87.81;101461.97;7394150;19;20014;-66
2023/10/05 05:20:50;;;;;;;11.98;5.65;;;;;;;10.60;87.76;101455.81;7395803;19;20030;-68
2023/10/05 05:23:19;;;;;;;11.02;5.70;;;;;;;10.60;87.83;101458.44;7394484;19;20015;-67
2023/10/05 05:25:52;;;;;;;11.65;5.78;;;;;;;10.61;87.85;101452.31;7394610;19;20027;-67
2023/10/05 05:28:21;;;;;;;15.07;5.65;;;;;;;10.65;87.66;101445.28;7394420;19;20107;-67
2023/10/05 05:30:50;;;;;;;12.57;5.45;;;;;;;10.67;87.72;101447.00;7395035;19;20362;-66
2023/10/05 05:33:18;;;;;;;11.13;5.68;;;;;;;10.69;87.72;101445.25;7394592;19;20011;-66
2023/10/05 05:35:51;;;;;;;11.98;5.00;;;;;;;10.72;87.70;101445.19;7393921;19;20086;-66
2023/10/05 05:38:19;;;;;;;15.20;5.10;;;;;;;10.74;87.56;101443.44;7394634;19;20423;-66
2023/10/05 05:40:49;;;;;;;11.73;5.45;;;;;;;10.76;87.57;101436.41;7396259;19;20078;-67
2023/10/05 05:43:17;;;;;;;11.30;5.13;;;;;;;10.79;87.66;101446.00;7395450;19;20010;-66
2023/10/05 05:45:46;;;;;;;11.68;4.72;;;;;;;10.81;87.50;101444.22;7395898;19;20015;-66
2023/10/05 05:48:16;;;;;;;11.02;4.88;;;;;;;10.84;87.41;101443.31;7394260;19;20585;-67
2023/10/05 05:50:45;;;;;;;11.98;4.80;;;;;;;10.88;87.14;101450.28;7394785;19;20358;-66
2023/10/05 05:53:16;;;;;;;10.90;5.18;;;;;;;10.89;87.31;101452.91;7394642;19;20094;-66
2023/10/05 05:55:52;;;;;;;13.27;5.30;;;;;;;10.93;87.33;101448.47;7395286;19;20015;-66
2023/10/05 05:58:21;;;;;;;13.85;5.38;;;;;;;10.97;87.22;101444.03;7393940;19;20021;-66
2023/10/05 06:00:52;;;;;;;14.15;5.35;;;;;;;11.00;87.08;101439.63;7394498;19;20070;-66
2023/10/05 06:03:21;;;;;;;12.68;5.00;;;;;;;11.03;87.12;101439.59;7395648;19;20074;-68
2023/10/05 06:05:50;;;;;;;12.38;5.18;;;;;;;11.08;87.00;101439.53;7394966;19;20074;-67
2023/10/05 06:08:22;;;;;;;12.75;5.22;;;;;;;11.12;86.80;101437.72;7393937;19;20018;-67
2023/10/05 06:10:57;;;;;;;10.02;5.03;;;;;;;11.17;86.77;101444.69;7395430;19;20010;-66
2023/10/05 06:13:36;;;;;;;16.90;5.60;;;;;;;11.21;86.60;101443.75;7394173;19;20015;-66
2023/10/05 06:16:06;;;;;;;12.57;4.90;;;;;;;11.25;86.50;101442.81;7394796;19;20070;-66
2023/10/05 06:18:34;;;;;;;12.70;5.28;;;;;;;11.31;86.35;101435.72;7393147;19;20018;-66
2023/10/05 06:21:02;;;;;;;11.82;5.63;;;;;;;11.36;86.39;101441.78;7393303;19;20074;-67
2023/10/05 06:23:35;;;;;;;12.85;5.20;;;;;;;11.41;86.20;101437.34;7391453;19;20423;-66
2023/10/05 06:26:06;;;;;;;16.67;5.70;;;;;;;11.46;85.94;101443.41;7392098;19;20011;-65
2023/10/05 06:28:35;;;;;;;12.57;4.63;;;;;;;11.51;85.64;101444.22;7393126;19;20070;-67
2023/10/05 06:31:03;;;;;;;14.57;5.72;;;;;;;11.54;85.74;101435.44;7394343;19;20015;-67
2023/10/05 06:33:33;;;;;;;9.13;4.97;;;;;;;11.58;85.62;101437.97;7393720;19;20015;-68
2023/10/05 06:36:05;;;;;;;10.80;4.68;;;;;;;11.63;85.54;101444.94;7393668;19;20021;-68
2023/10/05 06:38:36;;;;;;;13.85;5.75;;;;;;;11.67;85.34;101436.09;7393285;19;20018;-68
2023/10/05 06:41:05;;;;;;;14.18;5.70;;;;;;;11.71;85.23;101445.66;7394847;19;20069;-68
2023/10/05 06:43:35;;;;;;;11.82;5.13;;;;;;;11.75;85.07;101444.72;7392877;19;20011;-67
2023/10/05 06:46:09;;;;;;;12.98;4.95;;;;;;;11.79;84.92;101440.28;7394304;19;20426;-67
2023/10/05 06:48:37;;;;;;;;;;;;;;;11.84;84.80;101446.34;7393483;19;20018;-68
2023/10/05 06:51:07;;;;;;;15.27;4.95;;;;;;;11.87;84.84;101444.53;7393696;19;19982;-68
2023/10/05 06:53:38;;;;;;;15.30;5.22;;;;;;;11.93;84.61;101437.44;7392604;19;20019;-68
2023/10/05 06:56:06;;;;;;;13.18;5.32;;;;;;;11.98;84.35;101440.88;7393229;19;20481;-67
2023/10/05 06:58:35;;;;;;;13.68;4.68;;;;;;;12.02;84.04;101443.47;7391531;19;20011;-68
2023/10/05 07:01:04;;;;;;;12.25;5.95;;;;;;;12.08;83.81;101442.50;7393631;19;20015;-68
2023/10/05 07:03:33;;;;;;;14.32;5.32;;;;;;;12.13;83.58;101440.66;7391214;19;20014;-66
2023/10/05 07:06:04;;;;;;;13.27;5.05;;;;;;;12.21;83.34;101448.41;7391870;19;20011;-69
2023/10/05 07:08:33;;;;;;;12.40;4.78;;;;;;;12.25;83.21;101452.72;7392452;19;20011;-68
2023/10/05 07:11:06;;;;;;;14.95;5.47;;;;;;;12.32;82.85;101456.09;7393824;19;20074;-67
2023/10/05 07:13:35;;;;;;;12.38;4.35;;;;;;;12.36;82.72;101458.66;7391605;19;20410;-68
2023/10/05 07:16:05;;;;;;;11.50;4.82;;;;;;;12.43;82.42;101456.78;7391492;19;20037;-67
2023/10/05 07:18:33;;;;;;;15.38;4.57;;;;;;;12.48;82.27;101452.28;7391700;19;20037;-68
2023/10/05 07:21:04;;;;;;;7.95;4.28;;;;;;;12.54;81.93;101461.84;7392971;19;20497;-68
2023/10/05 07:23:32;;;;;;;10.35;4.32;;;;;;;12.58;81.49;101453.00;7391972;19;20015;-68
2023/10/05 07:26:03;;;;;;;10.02;4.13;;;;;;;12.64;81.18;101452.03;7394048;19;20037;-67
2023/10/05 07:28:32;;;;;;;11.48;4.47;;;;;;;12.70;81.06;101462.41;7391078;19;20541;-67
2023/10/05 07:31:02;;;;;;;9.73;4.00;;;;;;;12.76;80.69;101464.94;7393144;19;20081;-69
2023/10/05 07:33:33;;;;;;;9.63;4.20;;;;;;;12.84;80.74;101470.09;7391362;19;20017;-68
2023/10/05 07:36:02;;;;;;;12.95;4.32;;;;;;;12.91;80.24;101458.50;7393043;19;20018;-67
2023/10/05 07:38:31;;;;;;;11.82;4.30;;;;;;;12.98;79.88;101467.19;7397755;19;20502;-67
2023/10/05 07:41:04;;;;;;;11.07;3.92;;;;;;;13.03;79.50;101468.81;7400351;19;20351;-68
2023/10/05 07:43:34;;;;;;;12.02;4.15;;;;;;;13.10;79.34;101479.22;7400103;19;20021;-67
2023/10/05 07:46:06;;;;;;;8.30;4.22;;;;;;;13.17;79.04;101468.50;7399739;19;20015;-68
2023/10/05 07:48:36;;;;;;;10.68;3.95;;;;;;;13.26;78.75;101479.78;7397818;19;20028;-68
2023/10/05 07:51:05;;;;;;;7.82;3.38;;;;;;;13.32;78.42;101487.53;7399551;19;20017;-68
2023/10/05 07:53:34;;;;;;;10.50;3.90;;;;;;;13.39;77.49;101473.34;7398670;19;20025;-67
2023/10/05 07:56:05;;;;;;;9.45;3.35;;;;;;;13.46;76.66;101480.22;7399684;19;20023;-67
2023/10/05 07:58:34;;;;;;;8.07;3.38;;;;;;;13.53;76.74;101494.13;7396438;19;20070;-68
2023/10/05 08:01:03;;;;;;;8.43;3.35;;;;;;;13.60;75.47;101503.66;7399168;19;20496;-68
2023/10/05 08:03:33;;;;;;;8.98;2.92;;;;;;;13.67;76.29;101493.81;7399675;19;20014;-68
2023/10/05 08:06:03;;;;;;;8.35;3.20;;;;;;;13.72;75.47;101497.22;7396358;19;20007;-67
2023/10/05 08:08:31;;;;;;;13.23;3.38;;;;;;;13.79;75.54;101479.50;7397536;19;20070;-68
2023/10/05 08:11:00;;;;;;;10.50;3.65;;;;;;;13.84;75.28;101496.94;7396382;19;20078;-68
2023/10/05 08:13:31;;;;;;;10.05;3.47;;;;;;;13.88;75.25;101512.72;7399282;19;20015;-67
2023/10/05 08:15:59;;;;;;;10.75;3.72;;;;;;;13.91;75.40;101496.81;7396656;19;20070;-68
2023/10/05 08:18:28;;;;;;;10.95;3.67;;;;;;;13.93;75.00;101513.47;7396895;19;20078;-67
2023/10/05 08:20:56;;;;;;;9.05;2.80;;;;;;;13.93;74.59;101509.06;7395977;19;20079;-71
2023/10/05 08:23:25;;;;;;;7.30;3.75;;;;;;;13.94;74.78;101508.16;7398349;19;20086;-68
2023/10/05 08:25:53;;;;;;;10.70;3.78;;;;;;;13.96;74.67;101505.47;7401238;19;20486;-68
2023/10/05 08:28:21;;;;;;;8.52;3.55;;;;;;;13.97;74.60;101513.34;7397814;19;20143;-68
2023/10/05 08:31:05;;;;;;;8.90;3.72;;;;;;;13.98;74.30;101508.97;7397652;19;20498;-68
2023/10/05 08:33:35;;;;;;;8.35;2.80;;;;;;;14.02;74.33;101515.88;7397917;19;20010;-67
2023/10/05 08:36:06;;;;;;;8.00;3.22;;;;;;;14.05;74.15;101507.88;7396995;19;20010;-67
2023/10/05 08:38:35;;;;;;;10.02;3.30;;;;;;;14.11;74.36;101512.16;7395776;19;20018;-67
2023/10/05 08:41:07;;;;;;;10.10;3.10;;;;;;;14.13;73.85;101524.41;7397654;19;20480;-68
2023/10/05 08:43:36;;;;;;;11.27;4.28;;;;;;;14.17;73.76;101504.94;7398590;19;20025;-68
2023/10/05 08:46:10;;;;;;;8.30;3.72;;;;;;;14.22;73.60;101502.22;7395932;19;20018;-68
2023/10/05 08:48:39;;;;;;;8.88;3.10;;;;;;;14.24;72.75;101532.09;7395490;19;20365;-68
2023/10/05 08:51:10;;;;;;;9.40;3.17;;;;;;;14.27;73.30;101504.75;7396608;19;20018;-67
2023/10/05 08:53:43;;;;;;;13.25;3.25;;;;;;;14.33;72.85;101501.91;7396693;19;20018;-68
2023/10/05 08:56:15;;;;;;;13.48;3.55;;;;;;;14.38;72.75;101496.53;7396743;19;20515;-68
2023/10/05 08:58:45;;;;;;;9.60;3.47;;;;;;;14.45;72.74;101500.75;7394322;19;20018;-68
2023/10/05 09:01:33;;;;;;;7.95;2.90;;;;;;;14.50;71.43;101504.16;7397148;19;20015;-68
2023/10/05 09:04:11;;;;;;;12.57;3.20;;;;;;;14.57;72.02;101510.13;7397070;19;20006;-68
2023/10/05 09:06:49;;;;;;;10.15;3.30;;;;;;;14.63;70.86;101516.13;7396426;19;20082;-67
2023/10/05 09:09:15;;;;;;;8.50;2.72;;;;;;;14.70;71.04;101508.94;7394521;19;20025;-67
2023/10/05 09:11:44;;;;;;;9.88;2.97;;;;;;;14.77;71.14;101510.50;7393672;19;20011;-68
2023/10/05 09:14:27;;;;;;;7.15;3.10;;;;;;;14.85;70.87;101512.94;7393506;19;20423;-68
2023/10/05 09:17:07;;;;;;;7.05;2.90;;;;;;;14.92;69.12;101521.56;7397473;19;20015;-67
2023/10/05 09:19:37;;;;;;;8.48;2.70;;;;;;;15.02;69.63;101516.91;7394619;19;20036;-67
2023/10/05 09:22:14;;;;;;;9.23;3.08;;;;;;;15.10;69.71;101512.25;7395055;19;20015;-68
2023/10/05 09:24:43;;;;;;;9.07;2.67;;;;;;;15.17;69.25;101542.03;7396760;19;20062;-68
2023/10/05 09:27:19;;;;;;;7.03;2.92;;;;;;;15.26;69.52;101520.59;7395109;19;20010;-68
2023/10/05 09:29:48;;;;;;;16.48;6.53;;;;;;;15.33;68.86;101524.81;7395449;19;20027;-68
2023/10/05 09:32:30;;;;;;;6.70;3.20;;;;;;;15.40;67.04;101518.41;7396229;19;20011;-67
2023/10/05 09:35:00;;;;;;;5.93;2.90;;;;;;;15.47;68.57;101519.97;7394630;19;20018;-67
2023/10/05 09:37:30;;;;;;;7.72;2.58;;;;;;;15.52;68.21;101518.97;7393451;19;20479;-67
2023/10/05 09:40:03;;;;;;;7.78;3.15;;;;;;;15.55;67.97;101519.75;7396211;19;20017;-68
2023/10/05 09:42:36;;;;;;;6.47;2.40;;;;;;;15.58;67.31;101532.00;7393290;19;20481;-67
2023/10/05 09:45:12;;;;;;;8.85;2.78;;;;;;;15.62;67.77;101531.03;7395875;19;20082;-67
2023/10/05 09:47:46;;;;;;;7.82;3.00;;;;;;;15.64;67.07;101535.34;7395229;19;20023;-68
2023/10/05 09:50:26;;;;;;;8.45;2.85;;;;;;;15.68;65.95;101544.03;7395414;19;20014;-68
2023/10/05 09:52:59;;;;;;;10.68;2.70;;;;;;;15.73;66.08;101531.56;7395902;19;20014;-67
2023/10/05 09:55:30;;;;;;;6.53;2.47;;;;;;;15.77;66.09;101524.38;7393642;19;20023;-66
2023/10/05 09:58:05;;;;;;;6.10;2.60;;;;;;;15.81;65.28;101518.09;7394884;19;20014;-66
2023/10/05 10:03:18;;;;;;;6.40;2.35;;;;;;;15.92;65.21;101523.94;7392990;19;20350;-66
2023/10/05 10:05:48;;;;;;;6.38;2.25;;;;;;;15.96;64.63;101524.69;7394514;19;20015;-66
2023/10/05 10:08:23;;;;;;;9.70;2.53;;;;;;;16.00;63.49;101549.28;7393068;19;20022;-67
2023/10/05 10:11:01;;;;;;;12.77;2.90;;;;;;;16.02;63.55;101516.53;7395587;19;20010;-67
2023/10/05 10:13:37;;;;;;;6.95;2.40;;;;;;;16.05;62.55;101527.06;7395506;19;20021;-67
2023/10/05 10:16:21;;;;;;;7.88;2.80;;;;;;;16.10;62.71;101527.75;7394203;19;20007;-66
2023/10/05 10:19:03;;;;;;;9.73;2.80;;;;;;;16.14;62.32;101525.91;7392815;19;20155;-67
2023/10/05 10:21:36;;;;;;;6.10;2.60;;;;;;;16.19;62.56;101542.50;7394495;19;20071;-67
2023/10/05 10:24:06;;;;;;;5.90;2.50;;;;;;;16.24;63.02;101523.81;7393113;19;20082;-69
2023/10/05 10:26:41;;;;;;;6.90;2.25;;;;;;;16.27;62.16;101534.28;7395824;19;20006;-69
2023/10/05 10:29:11;;;;;;;6.15;2.58;;;;;;;16.31;62.88;101521.81;7392543;19;20409;-66
2023/10/05 10:31:47;;;;;;;9.63;3.45;;;;;;;16.35;62.85;101528.72;7393602;19;20011;-66
2023/10/05 10:34:42;;;;;;;7.65;2.45;;;;;;;16.38;62.28;101537.44;7393234;19;20492;-67
2023/10/05 10:37:11;;;;;;;6.82;2.58;;;;;;;16.42;62.92;101530.28;7392389;19;20022;-67
2023/10/05 10:39:39;;;;;;;6.55;2.53;;;;;;;16.44;62.73;101531.06;7394801;19;20074;-69
2023/10/05 10:42:12;;;;;;;9.75;2.70;;;;;;;16.45;62.65;101533.69;7395483;19;20035;-67
2023/10/05 10:44:57;;;;;;;6.63;2.70;;;;;;;16.45;62.00;101538.97;7394494;19;20070;-67
2023/10/05 10:47:26;;;;;;;8.88;2.15;;;;;;;16.47;62.59;101524.78;7391764;19;20015;-66
2023/10/05 10:50:11;;;;;;;6.60;2.33;;;;;;;16.47;61.54;101541.56;7391838;19;20007;-67
2023/10/05 10:52:40;;;;;;;7.93;2.63;;;;;;;16.52;62.20;101523.75;7391598;19;20358;-68
2023/10/05 10:55:14;;;;;;;7.93;2.67;;;;;;;16.57;62.76;101521.78;7390672;19;20498;-66
2023/10/05 10:57:46;;;;;;;6.63;2.28;;;;;;;16.64;62.22;101548.94;7393090;19;20019;-66
2023/10/05 11:02:57;;;;;;;5.10;1.85;;;;;;;16.71;62.16;101526.59;7393366;19;20339;-67
2023/10/05 11:05:43;;;;;;;6.63;2.47;;;;;;;16.76;61.83;101523.81;7392669;19;20366;-65
2023/10/05 11:08:12;;;;;;;7.53;2.88;;;;;;;16.81;62.17;101531.56;7392699;19;20018;-66
2023/10/05 11:10:42;;;;;;;8.52;2.17;;;;;;;16.80;61.58;101517.47;7395689;19;20014;-66
2023/10/05 11:13:18;;;;;;;7.47;2.00;;;;;;;16.80;61.79;101524.56;7397093;19;20010;-67
2023/10/05 11:15:57;;;;;;;6.32;2.30;;;;;;;16.78;61.46;101540.50;7398106;19;20082;-66
2023/10/05 11:18:27;;;;;;;5.05;2.20;;;;;;;16.76;61.54;101542.34;7398256;19;20010;-65
2023/10/05 11:21:07;;;;;;;7.25;2.33;;;;;;;16.72;60.96;101524.81;7399920;19;20007;-65
2023/10/05 11:23:45;;;;;;;7.22;2.33;;;;;;;16.71;61.38;101544.31;7400500;19;20018;-65
2023/10/05 11:26:26;;;;;;;6.20;2.30;;;;;;;16.67;61.39;101532.94;7399279;19;20517;-64
2023/10/05 11:28:56;;;;;;;6.28;2.33;;;;;;;16.63;61.14;101555.16;7397649;19;20370;-64
2023/10/05 11:31:27;;;;;;;7.18;2.83;;;;;;;16.59;60.53;101553.53;7399307;19;20073;-66
2023/10/05 11:34:00;;;;;;;5.10;2.67;;;;;;;16.58;60.98;101533.25;7397567;19;20011;-65
2023/10/05 11:36:33;;;;;;;5.35;2.40;;;;;;;16.60;60.53;101531.41;7397432;19;20015;-66
2023/10/05 11:39:03;;;;;;;3.47;2.10;;;;;;;16.61;61.30;101526.06;7397081;19;20481;-65
2023/10/05 11:41:33;;;;;;;6.47;2.20;;;;;;;16.64;61.36;101519.78;7400014;19;20029;-67
2023/10/05 11:44:11;;;;;;;6.20;2.88;;;;;;;16.66;60.87;101520.63;7400471;19;20040;-65
2023/10/05 11:46:46;;;;;;;5.75;2.75;;;;;;;16.67;60.49;101526.75;7401047;19;20018;-65
2023/10/05 11:49:15;;;;;;;6.20;2.67;;;;;;;16.71;60.97;101528.41;7400072;19;20026;-66
2023/10/05 11:51:56;;;;;;;9.25;3.05;;;;;;;16.71;60.90;101523.97;7398862;19;20011;-66
2023/10/05 11:54:29;;;;;;;9.48;3.17;;;;;;;16.72;60.79;101531.00;7399266;19;20014;-67
2023/10/05 11:56:58;;;;;;;7.18;2.55;;;;;;;16.70;60.62;101527.53;7397444;19;20010;-66